createdAt,value
2022-09-07T00:02:05.464Z,100354.38
2022-09-07T00:04:32.210Z,100348.34
2022-09-07T00:06:58.879Z,100259.31
2022-09-07T00:09:25.777Z,100339.38
2022-09-07T00:11:52.492Z,100350.84
2022-09-07T00:14:19.181Z,100353.03
2022-09-07T00:16:45.856Z,100305.66
2022-09-07T00:19:12.579Z,100328.69
2022-09-07T00:21:39.335Z,100343.38
2022-09-07T00:24:06.179Z,100352.16
2022-09-07T00:26:32.944Z,100359.69
2022-09-07T00:29:01.203Z,100317.00
2022-09-07T00:31:29.567Z,100356.72
2022-09-07T00:33:58.987Z,100352.09
2022-09-07T00:36:25.669Z,100330.03
2022-09-07T00:38:52.889Z,100344.72
2022-09-07T00:41:20.915Z,100350.47
2022-09-07T00:44:11.741Z,100350.88
2022-09-07T00:46:38.447Z,100291.72
2022-09-07T00:49:19.244Z,100336.41
2022-09-07T00:51:53.985Z,100320.00
2022-09-07T00:54:28.428Z,100312.06
2022-09-07T00:56:55.208Z,100325.75
2022-09-07T00:59:26.875Z,100316.31
2022-09-07T01:01:54.003Z,100309.16
2022-09-07T01:04:22.281Z,100329.75
2022-09-07T01:06:49.465Z,100312.19
2022-09-07T01:09:20.801Z,100301.06
2022-09-07T01:11:51.104Z,100319.03
2022-09-07T01:14:28.024Z,100307.59
2022-09-07T01:17:18.486Z,100325.78
2022-09-07T01:19:45.110Z,100339.53
2022-09-07T01:22:30.721Z,100343.66
2022-09-07T01:25:09.331Z,100336.56
2022-09-07T01:28:00.785Z,100338.94
2022-09-07T01:30:28.404Z,100333.13
2022-09-07T01:33:19.426Z,100339.72
2022-09-07T01:36:39.719Z,100340.38
2022-09-07T01:39:07.042Z,100335.06
2022-09-07T01:41:49.150Z,100330.09
2022-09-07T01:44:24.231Z,100336.31
2022-09-07T01:47:21.648Z,100338.75
2022-09-07T01:50:06.261Z,100327.06
2022-09-07T01:52:43.545Z,100340.13
2022-09-07T01:55:27.356Z,100313.84
2022-09-07T01:58:21.072Z,100322.91
2022-09-07T02:00:54.148Z,100316.38
2022-09-07T02:03:37.339Z,100315.97
2022-09-07T02:06:31.828Z,100316.91
2022-09-07T02:09:07.104Z,100336.38
2022-09-07T02:11:36.603Z,100322.44
2022-09-07T02:14:27.951Z,100303.09
2022-09-07T02:17:07.215Z,100315.91
2022-09-07T02:19:41.003Z,100300.84
2022-09-07T02:22:13.457Z,100303.84
2022-09-07T02:24:45.018Z,100303.09
2022-09-07T02:27:21.447Z,100306.75
2022-09-07T02:29:48.276Z,100296.41
2022-09-07T02:32:14.958Z,100311.97
2022-09-07T02:34:41.669Z,100303.34
2022-09-07T02:37:09.418Z,100321.91
2022-09-07T02:39:36.132Z,100319.41
2022-09-07T02:42:03.291Z,100281.66
2022-09-07T02:44:36.651Z,100315.56
2022-09-07T02:47:31.172Z,100321.97
2022-09-07T02:50:34.632Z,100308.19
2022-09-07T02:53:13.466Z,100307.56
2022-09-07T02:55:55.431Z,100302.53
2022-09-07T02:58:41.067Z,100274.44
2022-09-07T03:01:13.876Z,100284.38
2022-09-07T03:03:52.835Z,100294.75
2022-09-07T03:06:29.533Z,100277.69
2022-09-07T03:09:00.330Z,100267.13
2022-09-07T03:11:29.508Z,100271.03
2022-09-07T03:14:19.852Z,100290.63
2022-09-07T03:16:52.276Z,100290.84
2022-09-07T03:19:18.926Z,100294.75
2022-09-07T03:21:45.740Z,100292.25
2022-09-07T03:24:12.408Z,100271.25
2022-09-07T03:26:41.371Z,100266.22
2022-09-07T03:29:08.087Z,100237.25
2022-09-07T03:31:35.228Z,100294.72
2022-09-07T03:34:02.270Z,100289.28
2022-09-07T03:36:32.795Z,100273.22
2022-09-07T03:38:59.871Z,100274.75
2022-09-07T03:41:27.698Z,100264.16
2022-09-07T03:43:54.945Z,100263.63
2022-09-07T03:46:22.179Z,100287.91
2022-09-07T03:48:50.431Z,100272.97
2022-09-07T03:51:18.797Z,100278.81
2022-09-07T03:53:46.796Z,100269.69
2022-09-07T03:56:13.380Z,100278.13
2022-09-07T03:58:40.269Z,100286.56
2022-09-07T04:01:10.056Z,100279.81
2022-09-07T04:03:36.861Z,100288.06
2022-09-07T04:06:05.064Z,100287.50
2022-09-07T04:08:33.806Z,100272.94
2022-09-07T04:11:02.435Z,100293.50
2022-09-07T04:13:30.516Z,100255.59
2022-09-07T04:15:57.577Z,100287.09
2022-09-07T04:18:25.077Z,100274.22
2022-09-07T04:20:51.816Z,100277.78
2022-09-07T04:23:20.008Z,100288.38
2022-09-07T04:25:50.892Z,100263.31
2022-09-07T04:28:19.144Z,100291.09
2022-09-07T04:30:45.900Z,100291.50
2022-09-07T04:33:13.431Z,100290.56
2022-09-07T04:35:41.655Z,100297.41
2022-09-07T04:38:12.663Z,100284.19
2022-09-07T04:40:39.361Z,100264.56
2022-09-07T04:43:08.156Z,100270.34
2022-09-07T04:45:37.214Z,100273.13
2022-09-07T04:48:04.721Z,100282.13
2022-09-07T04:50:31.739Z,100308.03
2022-09-07T04:52:58.376Z,100297.09
2022-09-07T04:55:25.111Z,100330.06
2022-09-07T04:57:51.941Z,100320.78
2022-09-07T05:00:18.797Z,100297.03
2022-09-07T05:02:45.500Z,100310.56
2022-09-07T05:05:12.254Z,100303.00
2022-09-07T05:07:38.906Z,100312.06
2022-09-07T05:10:06.005Z,100326.75
2022-09-07T05:12:32.834Z,100292.16
2022-09-07T05:14:59.610Z,100305.28
2022-09-07T05:17:26.299Z,100316.56
2022-09-07T05:19:54.876Z,100330.09
2022-09-07T05:22:22.368Z,100318.97
2022-09-07T05:24:49.201Z,100340.75
2022-09-07T05:27:15.879Z,100326.31
2022-09-07T05:32:29.863Z,100255.56
2022-09-07T05:34:56.535Z,100324.78
2022-09-07T05:37:23.191Z,100296.50
2022-09-07T05:39:49.974Z,100315.78
2022-09-07T05:42:16.778Z,100311.56
2022-09-07T05:44:43.884Z,100317.56
2022-09-07T05:47:11.512Z,100337.41
2022-09-07T05:49:38.300Z,100335.84
2022-09-07T05:52:05.050Z,100297.88
2022-09-07T05:54:36.400Z,100323.56
2022-09-07T05:57:03.670Z,100316.53
2022-09-07T05:59:30.799Z,100319.66
2022-09-07T06:01:57.562Z,100298.13
2022-09-07T06:04:24.618Z,100329.31
2022-09-07T06:07:19.998Z,100307.75
2022-09-07T06:12:26.880Z,100337.41
2022-09-07T06:14:53.547Z,100290.22
2022-09-07T06:17:20.188Z,100323.00
2022-09-07T06:19:46.817Z,100314.66
2022-09-07T06:22:13.511Z,100314.94
2022-09-07T06:24:40.183Z,100321.91
2022-09-07T06:27:06.835Z,100324.97
2022-09-07T06:29:33.532Z,100328.16
2022-09-07T06:34:46.870Z,100328.44
2022-09-07T06:37:13.861Z,100332.09
2022-09-07T06:39:40.723Z,100371.19
2022-09-07T06:42:07.517Z,100333.28
2022-09-07T06:44:34.676Z,100326.47
2022-09-07T06:49:29.526Z,100364.78
2022-09-07T06:51:56.236Z,100339.22
2022-09-07T06:57:09.921Z,100352.03
2022-09-07T06:59:37.756Z,100328.91
2022-09-07T07:02:05.823Z,100364.13
2022-09-07T07:04:37.695Z,100342.72
2022-09-07T07:07:06.579Z,100344.56
2022-09-07T07:09:33.260Z,100351.38
2022-09-07T07:11:59.964Z,100337.16
2022-09-07T07:14:27.471Z,100369.50
2022-09-07T07:16:55.829Z,100357.84
2022-09-07T07:19:22.488Z,100334.16
2022-09-07T07:22:10.838Z,100355.00
2022-09-07T07:24:35.755Z,100347.94
2022-09-07T07:27:02.972Z,100363.69
2022-09-07T07:29:29.611Z,100340.66
2022-09-07T07:31:56.243Z,100365.84
2022-09-07T07:34:24.155Z,100388.63
2022-09-07T07:36:50.783Z,100371.19
2022-09-07T07:42:05.917Z,100398.97
2022-09-07T07:44:33.050Z,100381.72
2022-09-07T07:46:59.760Z,100391.66
2022-09-07T07:49:26.851Z,100380.88
2022-09-07T07:54:43.285Z,100392.56
2022-09-07T07:57:10.513Z,100379.84
2022-09-07T07:59:38.063Z,100384.19
2022-09-07T08:02:08.723Z,100392.59
2022-09-07T08:04:36.156Z,100396.97
2022-09-07T08:07:09.584Z,100398.22
2022-09-07T08:09:40.822Z,100358.44
2022-09-07T08:12:08.757Z,100381.03
2022-09-07T08:14:41.787Z,100366.94
2022-09-07T08:17:14.205Z,100369.13
2022-09-07T08:19:41.026Z,100351.28
2022-09-07T08:22:09.154Z,100380.75
2022-09-07T08:24:35.791Z,100358.25
2022-09-07T08:27:02.508Z,100357.09
2022-09-07T08:29:33.576Z,100269.41
2022-09-07T08:32:01.886Z,100364.09
2022-09-07T08:34:29.592Z,100323.56
2022-09-07T08:36:56.243Z,100352.00
2022-09-07T08:39:22.814Z,100346.25
2022-09-07T08:42:13.129Z,100366.03
2022-09-07T08:44:52.892Z,100290.59
2022-09-07T08:47:35.324Z,100308.66
2022-09-07T08:50:17.032Z,100353.84
2022-09-07T08:53:08.646Z,100366.56
2022-09-07T08:55:40.704Z,100360.41
2022-09-07T08:58:45.384Z,100361.75
2022-09-07T09:04:16.969Z,100354.72
2022-09-07T09:06:52.562Z,100355.31
2022-09-07T09:09:45.386Z,100349.00
2022-09-07T09:12:26.784Z,100353.69
2022-09-07T09:15:15.593Z,100349.50
2022-09-07T09:17:53.438Z,100344.41
2022-09-07T09:20:41.632Z,100336.50
2022-09-07T09:23:16.966Z,100332.94
2022-09-07T09:26:00.006Z,100336.00
2022-09-07T09:28:28.996Z,100326.38
2022-09-07T09:30:58.531Z,100318.13
2022-09-07T09:33:28.817Z,100308.84
2022-09-07T09:36:00.896Z,100304.97
2022-09-07T09:38:39.531Z,100329.22
2022-09-07T09:41:08.839Z,100329.72
2022-09-07T09:43:45.806Z,100322.28
2022-09-07T09:46:31.478Z,100287.09
2022-09-07T09:49:03.346Z,100286.75
2022-09-07T09:54:27.160Z,100313.06
2022-09-07T09:56:53.832Z,100290.94
2022-09-07T10:05:37.761Z,100298.88
2022-09-07T10:08:16.145Z,100307.50
2022-09-07T10:11:00.760Z,100305.66
2022-09-07T10:13:51.748Z,100294.84
2022-09-07T10:16:18.760Z,100294.81
2022-09-07T10:18:58.739Z,100286.00
2022-09-07T10:21:28.571Z,100287.09
2022-09-07T10:24:15.436Z,100290.59
2022-09-07T10:26:48.390Z,100280.84
2022-09-07T10:29:17.071Z,100291.84
2022-09-07T10:31:48.315Z,100274.00
2022-09-07T10:34:47.699Z,100279.13
2022-09-07T10:37:42.254Z,100245.53
2022-09-07T10:40:31.785Z,100267.25
2022-09-07T10:43:25.523Z,100266.44
2022-09-07T10:49:38.237Z,100276.25
2022-09-07T10:52:34.551Z,100268.78
2022-09-07T10:55:26.504Z,100280.91
2022-09-07T10:58:14.265Z,100277.34
2022-09-07T11:01:36.613Z,100272.13
2022-09-07T11:04:28.942Z,100271.50
2022-09-07T11:07:18.444Z,100273.38
2022-09-07T11:09:55.557Z,100269.25
2022-09-07T11:12:29.509Z,100272.44
2022-09-07T11:15:04.933Z,100270.56
2022-09-07T11:17:55.493Z,100247.59
2022-09-07T11:20:34.193Z,100262.78
2022-09-07T11:23:15.507Z,100250.31
2022-09-07T11:25:54.265Z,100242.53
2022-09-07T11:28:33.076Z,100254.91
2022-09-07T11:31:04.287Z,100256.19
2022-09-07T11:34:23.800Z,100252.13
2022-09-07T11:36:36.097Z,100230.56
2022-09-07T11:39:09.996Z,100250.53
2022-09-07T11:41:46.997Z,100240.06
2022-09-07T11:44:31.641Z,100241.72
2022-09-07T11:47:07.356Z,100236.94
2022-09-07T11:49:34.024Z,100223.81
2022-09-07T11:52:08.929Z,100230.50
2022-09-07T11:54:51.908Z,100243.81
2022-09-07T11:57:32.750Z,100223.78
2022-09-07T12:00:20.123Z,100230.50
2022-09-07T12:03:22.610Z,100236.56
2022-09-07T12:06:05.358Z,100217.31
2022-09-07T12:09:05.745Z,100234.78
2022-09-07T12:12:07.172Z,100227.50
2022-09-07T12:14:55.201Z,100226.19
2022-09-07T12:17:28.987Z,100216.72
2022-09-07T12:20:12.007Z,100225.91
2022-09-07T12:22:55.538Z,100204.19
2022-09-07T12:25:22.376Z,100218.59
2022-09-07T12:27:49.400Z,100213.16
2022-09-07T12:30:15.938Z,100217.84
2022-09-07T12:32:55.002Z,100217.75
2022-09-07T12:35:28.760Z,100212.44
2022-09-07T12:38:00.379Z,100203.28
2022-09-07T12:40:29.791Z,100211.47
2022-09-07T12:43:14.664Z,100210.88
2022-09-07T12:45:41.987Z,100207.41
2022-09-07T12:48:17.678Z,100205.47
2022-09-07T12:51:08.362Z,100201.34
2022-09-07T12:54:09.734Z,100199.50
2022-09-07T12:56:42.699Z,100199.44
2022-09-07T12:59:34.639Z,100184.97
2022-09-07T13:02:10.436Z,100186.13
2022-09-07T13:05:01.864Z,100183.22
2022-09-07T13:07:34.364Z,100164.13
2022-09-07T13:10:43.078Z,100172.44
2022-09-07T13:13:15.764Z,100171.63
2022-09-07T13:15:50.059Z,100165.63
2022-09-07T13:18:37.428Z,100148.81
2022-09-07T13:21:07.093Z,100161.31
2022-09-07T13:23:45.576Z,100146.44
2022-09-07T13:26:33.411Z,100158.78
2022-09-07T13:29:04.527Z,100161.13
2022-09-07T13:31:48.263Z,100149.66
2022-09-07T13:34:33.661Z,100166.06
2022-09-07T13:37:02.008Z,100143.03
2022-09-07T13:39:32.570Z,100123.00
2022-09-07T13:42:00.669Z,100149.47
2022-09-07T13:44:33.072Z,100141.84
2022-09-07T13:47:18.170Z,100154.66
2022-09-07T13:49:57.924Z,100130.78
2022-09-07T13:52:50.607Z,100139.28
2022-09-07T13:55:33.126Z,100134.69
2022-09-07T13:58:13.311Z,100136.84
2022-09-07T14:00:58.963Z,100138.16
2022-09-07T14:03:29.641Z,100114.38
2022-09-07T14:06:21.303Z,100137.78
2022-09-07T14:08:50.396Z,100120.75
2022-09-07T14:11:38.461Z,100137.50
2022-09-07T14:14:13.789Z,100127.44
2022-09-07T14:16:42.721Z,100129.91
2022-09-07T14:19:11.578Z,100123.00
2022-09-07T14:21:38.915Z,100126.19
2022-09-07T14:24:19.471Z,100129.84
2022-09-07T14:26:48.383Z,100126.47
2022-09-07T14:29:32.706Z,100123.47
2022-09-07T14:32:01.623Z,100114.47
2022-09-07T14:34:33.940Z,100089.00
2022-09-07T14:37:04.961Z,100130.28
2022-09-07T14:39:37.494Z,100121.16
2022-09-07T14:42:04.654Z,100120.94
2022-09-07T14:44:32.668Z,100114.38
2022-09-07T14:47:03.474Z,100121.28
2022-09-07T14:49:30.353Z,100100.78
2022-09-07T14:51:57.263Z,100087.97
2022-09-07T14:54:28.852Z,100099.47
2022-09-07T14:57:30.701Z,100111.34
2022-09-07T14:59:58.989Z,100121.59
2022-09-07T15:02:33.571Z,100105.06
2022-09-07T15:05:25.771Z,100122.22
2022-09-07T15:07:55.272Z,100094.91
2022-09-07T15:10:22.481Z,100124.09
2022-09-07T15:12:52.288Z,100104.75
2022-09-07T15:15:21.410Z,100121.50
2022-09-07T15:17:48.363Z,100103.84
2022-09-07T15:20:47.531Z,100114.25
2022-09-07T15:23:15.167Z,100121.09
2022-09-07T15:25:46.493Z,100099.97
2022-09-07T15:34:10.090Z,100097.47
2022-09-07T15:36:40.350Z,100102.03
2022-09-07T15:39:07.494Z,100095.28
2022-09-07T15:41:34.864Z,100104.41
2022-09-07T15:44:02.767Z,100105.97
2022-09-07T15:46:29.423Z,100102.66
2022-09-07T15:48:56.371Z,100105.03
2022-09-07T15:54:13.054Z,100111.00
2022-09-07T15:56:40.718Z,100100.22
2022-09-07T15:59:07.593Z,100092.59
2022-09-07T16:04:23.789Z,100114.97
2022-09-07T16:06:50.867Z,100085.94
2022-09-07T16:09:21.204Z,100104.19
2022-09-07T16:11:50.143Z,100107.25
2022-09-07T16:14:17.830Z,100091.88
2022-09-07T16:19:35.075Z,100100.09
2022-09-07T16:22:03.337Z,100120.50
2022-09-07T16:24:30.075Z,100093.22
2022-09-07T16:26:56.762Z,100105.69
2022-09-07T16:29:23.364Z,100105.97
2022-09-07T16:34:36.635Z,100108.19
2022-09-07T16:37:03.656Z,100106.09
2022-09-07T16:39:30.578Z,100079.59
2022-09-07T16:41:57.458Z,100074.59
2022-09-07T16:44:24.159Z,100094.97
2022-09-07T16:46:50.978Z,100112.06
2022-09-07T16:49:17.903Z,100088.44
2022-09-07T16:51:45.788Z,100105.06
2022-09-07T16:54:13.963Z,100118.44
2022-09-07T16:56:40.767Z,100106.50
2022-09-07T16:59:09.508Z,100099.03
2022-09-07T17:01:40.145Z,100097.94
2022-09-07T17:04:10.976Z,100115.16
2022-09-07T17:06:39.581Z,100108.03
2022-09-07T17:09:07.137Z,100114.16
2022-09-07T17:11:35.639Z,100104.97
2022-09-07T17:14:02.469Z,100099.66
2022-09-07T17:16:32.063Z,100108.59
2022-09-07T17:21:51.799Z,100082.78
2022-09-07T17:24:19.723Z,100108.19
2022-09-07T17:26:46.686Z,100093.47
2022-09-07T17:29:13.483Z,100120.91
2022-09-07T17:34:26.840Z,100095.25
2022-09-07T17:36:53.610Z,100065.91
2022-09-07T17:39:20.353Z,100102.53
2022-09-07T17:41:52.707Z,100138.38
2022-09-07T17:44:19.974Z,100114.44
2022-09-07T17:46:46.550Z,100112.72
2022-09-07T17:49:16.377Z,100143.19
2022-09-07T17:51:43.756Z,100139.91
2022-09-07T17:54:14.307Z,100121.75
2022-09-07T17:56:41.906Z,100150.22
2022-09-07T18:01:56.399Z,100137.47
2022-09-07T18:04:23.633Z,100133.88
2022-09-07T18:06:50.708Z,100144.13
2022-09-07T18:09:17.460Z,100148.03
2022-09-07T18:11:45.822Z,100110.91
2022-09-07T18:14:14.596Z,100129.00
2022-09-07T18:16:42.059Z,100160.69
2022-09-07T18:19:08.824Z,100145.91
2022-09-07T18:21:37.352Z,100177.22
2022-09-07T18:24:08.077Z,100170.09
2022-09-07T18:26:38.415Z,100162.72
2022-09-07T18:29:13.242Z,100168.53
2022-09-07T18:31:53.937Z,100185.09
2022-09-07T18:34:20.827Z,100170.16
2022-09-07T18:36:47.552Z,100180.63
2022-09-07T18:39:14.345Z,100131.06
2022-09-07T18:41:42.147Z,100167.75
2022-09-07T18:45:27.142Z,100128.00
2022-09-07T18:46:55.593Z,100143.69
2022-09-07T18:49:22.209Z,100147.19
2022-09-07T18:54:35.474Z,100150.38
2022-09-07T18:57:03.218Z,100146.47
2022-09-07T18:59:29.974Z,100155.81
2022-09-07T19:02:03.016Z,100148.31
2022-09-07T19:07:18.635Z,100180.97
2022-09-07T19:09:45.393Z,100145.63
2022-09-07T19:12:12.146Z,100165.06
2022-09-07T19:14:38.839Z,100148.66
2022-09-07T19:17:05.636Z,100149.75
2022-09-07T19:19:34.368Z,100125.81
2022-09-07T19:22:02.422Z,100144.78
2022-09-07T19:24:29.068Z,100169.56
2022-09-07T19:27:00.058Z,100139.06
2022-09-07T19:29:27.393Z,100145.44
2022-09-07T19:32:12.035Z,100139.91
2022-09-07T19:34:43.662Z,100154.97
2022-09-07T19:37:12.635Z,100173.44
2022-09-07T19:39:39.750Z,100119.03
2022-09-07T19:42:07.117Z,100135.19
2022-09-07T19:44:33.806Z,100115.25
2022-09-07T19:47:00.934Z,100111.75
2022-09-07T19:49:28.263Z,100140.03
2022-09-07T19:51:55.029Z,100129.22
2022-09-07T19:54:22.061Z,100113.69
2022-09-07T19:56:48.793Z,100132.38
2022-09-07T19:59:15.586Z,100057.38
2022-09-07T20:01:46.339Z,100073.84
2022-09-07T20:04:20.266Z,100131.66
2022-09-07T20:06:50.281Z,100120.44
2022-09-07T20:09:17.381Z,100130.19
2022-09-07T20:11:46.775Z,100118.66
2022-09-07T20:14:14.632Z,100077.66
2022-09-07T20:16:41.794Z,100116.84
2022-09-07T20:19:08.748Z,100098.38
2022-09-07T20:21:36.888Z,100091.00
2022-09-07T20:24:04.121Z,100089.38
2022-09-07T20:26:32.530Z,100095.47
2022-09-07T20:29:23.454Z,100088.22
2022-09-07T20:31:48.217Z,100098.66
2022-09-07T20:34:14.918Z,100101.66
2022-09-07T20:36:41.806Z,100081.63
2022-09-07T20:39:08.670Z,100075.78
2022-09-07T20:41:35.318Z,100065.34
2022-09-07T20:44:04.135Z,100113.28
2022-09-07T20:46:31.577Z,100082.22
2022-09-07T20:48:58.589Z,100096.06
2022-09-07T20:51:25.361Z,100106.25
2022-09-07T20:53:52.039Z,100102.38
2022-09-07T20:56:24.120Z,100104.53
2022-09-07T20:58:55.622Z,100097.63
2022-09-07T21:01:23.183Z,100077.97
2022-09-07T21:03:52.956Z,100082.59
2022-09-07T21:06:21.700Z,100022.88
2022-09-07T21:08:49.344Z,100053.97
2022-09-07T21:11:18.857Z,100104.31
2022-09-07T21:13:46.662Z,100097.28
2022-09-07T21:16:16.376Z,100087.56
2022-09-07T21:18:44.345Z,100102.59
2022-09-07T21:21:20.393Z,100095.94
2022-09-07T21:23:48.056Z,100113.91
2022-09-07T21:26:15.264Z,100124.13
2022-09-07T21:28:41.922Z,100068.00
2022-09-07T21:31:13.435Z,100125.31
2022-09-07T21:33:40.085Z,100046.44
2022-09-07T21:36:09.493Z,100091.94
2022-09-07T21:38:37.676Z,100117.31
2022-09-07T21:41:13.463Z,100131.03
2022-09-07T21:43:40.916Z,100128.25
2022-09-07T21:46:16.741Z,100078.94
2022-09-07T21:48:46.903Z,100090.00
2022-09-07T21:51:14.603Z,100108.22
2022-09-07T21:53:42.623Z,100121.56
2022-09-07T21:56:14.225Z,100121.19
2022-09-07T21:58:41.477Z,100082.22
2022-09-07T22:01:14.506Z,100121.94
2022-09-07T22:03:41.197Z,100124.59
2022-09-07T22:06:08.787Z,100118.16
2022-09-07T22:08:37.066Z,100118.91
2022-09-07T22:11:06.295Z,100119.75
2022-09-07T22:13:33.582Z,100116.22
2022-09-07T22:16:00.336Z,100117.78
2022-09-07T22:18:27.893Z,100115.75
2022-09-07T22:21:16.180Z,100137.13
2022-09-07T22:23:45.769Z,100116.84
2022-09-07T22:26:13.207Z,100127.66
2022-09-07T22:28:40.835Z,100124.84
2022-09-07T22:31:14.494Z,100132.38
2022-09-07T22:33:42.088Z,100126.31
2022-09-07T22:36:30.109Z,100128.13
2022-09-07T22:38:58.708Z,100120.72
2022-09-07T22:41:28.285Z,100127.03
2022-09-07T22:43:55.420Z,100119.63
2022-09-07T22:46:25.420Z,100122.41
2022-09-07T22:48:57.357Z,100001.31
2022-09-07T22:51:25.323Z,100098.72
2022-09-07T22:53:52.821Z,100097.88
2022-09-07T22:56:22.435Z,100062.47
2022-09-07T22:58:50.269Z,100106.38
2022-09-07T23:01:17.844Z,100109.66
2022-09-07T23:03:45.087Z,100086.63
2022-09-07T23:06:23.566Z,100120.50
2022-09-07T23:08:51.373Z,100077.66
2022-09-07T23:11:18.316Z,100015.47
2022-09-07T23:13:45.436Z,100119.53
2022-09-07T23:16:12.225Z,100096.34
2022-09-07T23:18:42.804Z,100113.34
2022-09-07T23:21:10.948Z,100108.09
2022-09-07T23:23:38.576Z,100107.63
2022-09-07T23:26:07.148Z,100097.44
2022-09-07T23:28:34.547Z,100084.69
2022-09-07T23:31:01.664Z,100088.56
2022-09-07T23:33:28.345Z,100063.69
2022-09-07T23:36:00.300Z,100020.34
2022-09-07T23:38:27.457Z,100057.25
2022-09-07T23:40:55.131Z,100092.34
2022-09-07T23:43:22.897Z,100092.56
2022-09-07T23:45:49.880Z,100093.06
2022-09-07T23:48:16.790Z,100059.00
2022-09-07T23:50:44.900Z,100080.34
2022-09-07T23:53:12.460Z,100087.41
2022-09-07T23:55:39.694Z,100050.47
2022-09-07T23:58:06.953Z,100075.09
